Time;durP1;ratioP1;P1;durP2;ratioP2;P2;SDS_P1;SDS_P2;PMS_P1;PMS_P2;Temp;Humidity;BMP_temperature;BMP_pressure;BME280_temperature;BME280_humidity;BME280_pressure;Samples;Min_cycle;Max_cycle;Signal;HPM_P1;HPM_P2
2024/02/23 00:01:53;;;;;;;;;;;7.10;99.90;;;;;;7603168;19;20057;-71
2024/02/23 00:04:26;;;;;;;0.75;0.45;;;7.10;99.90;;;;;;7604438;19;19923;-72
2024/02/23 00:06:58;;;;;;;0.50;0.40;;;7.10;99.90;;;;;;7607844;19;20338;-71
2024/02/23 00:09:30;;;;;;;1.27;0.50;;;7.10;99.90;;;;;;7596591;19;20331;-74
2024/02/23 00:12:03;;;;;;;1.05;0.52;;;7.10;99.90;;;;;;7599422;19;20022;-70
2024/02/23 00:14:36;;;;;;;2.53;0.75;;;7.00;99.90;;;;;;7610344;19;20023;-71
2024/02/23 00:17:08;;;;;;;0.30;0.30;;;7.00;99.90;;;;;;7611128;19;20014;-71
2024/02/23 00:19:41;;;;;;;0.80;0.40;;;7.00;99.90;;;;;;7601287;19;20021;-71
2024/02/23 00:22:13;;;;;;;0.50;0.50;;;7.00;99.90;;;;;;7596681;19;20014;-71
2024/02/23 00:24:45;;;;;;;0.43;0.30;;;7.00;99.90;;;;;;7598041;19;20684;-71
2024/02/23 00:27:37;;;;;;;2.40;0.70;;;7.00;99.90;;;;;;7632287;19;20363;-71
2024/02/23 00:30:10;;;;;;;0.52;0.32;;;7.00;99.90;;;;;;7629284;19;20588;-73
2024/02/23 00:32:42;;;;;;;0.88;0.52;;;7.00;99.90;;;;;;7632238;19;20025;-71
2024/02/23 00:35:15;;;;;;;1.08;0.93;;;6.90;99.90;;;;;;7625915;19;20056;-73
2024/02/23 00:37:48;;;;;;;0.90;0.52;;;6.90;99.90;;;;;;7630681;19;20014;-71
2024/02/23 00:40:20;;;;;;;0.32;0.32;;;6.80;99.90;;;;;;7622594;19;20022;-71
2024/02/23 00:42:52;;;;;;;1.50;0.50;;;6.90;99.90;;;;;;7631110;19;20025;-73
2024/02/23 00:45:24;;;;;;;0.28;0.20;;;6.80;99.90;;;;;;7631132;19;20090;-74
2024/02/23 00:47:59;;;;;;;1.10;0.28;;;6.80;99.90;;;;;;7627574;19;20047;-73
2024/02/23 00:50:32;;;;;;;0.80;0.30;;;6.90;99.90;;;;;;7628582;19;20037;-73
2024/02/23 00:53:05;;;;;;;1.30;0.50;;;6.90;99.90;;;;;;7632187;19;20021;-70
2024/02/23 00:55:37;;;;;;;0.30;0.30;;;6.90;99.90;;;;;;7635233;19;20376;-71
2024/02/23 00:58:09;;;;;;;0.47;0.20;;;6.90;99.90;;;;;;7633616;19;20010;-73
2024/02/23 01:00:42;;;;;;;0.40;0.40;;;6.90;99.90;;;;;;7622720;19;20628;-73
2024/02/23 01:04:44;;;;;;;0.60;0.43;;;6.80;99.90;;;;;;7628724;19;20385;-73
2024/02/23 01:07:17;;;;;;;2.17;0.40;;;7.00;99.90;;;;;;7609886;19;20022;-70
2024/02/23 01:09:49;;;;;;;0.73;0.40;;;6.90;99.90;;;;;;7613045;19;20022;-71
2024/02/23 01:12:22;;;;;;;0.50;0.30;;;6.80;99.90;;;;;;7621069;19;20010;-71
2024/02/23 01:14:55;;;;;;;0.30;0.30;;;6.80;99.90;;;;;;7635557;19;20409;-71
2024/02/23 01:17:27;;;;;;;0.40;0.40;;;6.80;99.90;;;;;;7614022;19;21870;-71
2024/02/23 01:20:00;;;;;;;0.30;0.30;;;6.90;99.90;;;;;;7613657;19;20034;-71
2024/02/23 01:22:32;;;;;;;0.30;0.30;;;6.90;99.90;;;;;;7626817;19;20866;-71
2024/02/23 01:25:05;;;;;;;0.75;0.45;;;6.90;99.90;;;;;;7608910;19;20014;-73
2024/02/23 01:27:38;;;;;;;1.25;0.82;;;6.80;99.90;;;;;;7620326;19;20022;-71
2024/02/23 01:30:11;;;;;;;0.40;0.38;;;6.80;99.90;;;;;;7629842;19;20548;-72
2024/02/23 01:32:43;;;;;;;0.80;0.43;;;6.80;99.90;;;;;;7619059;19;20014;-71
2024/02/23 01:35:15;;;;;;;1.38;0.65;;;6.80;99.90;;;;;;7627919;19;20090;-72
2024/02/23 01:37:48;;;;;;;1.25;0.50;;;6.70;99.90;;;;;;7635976;19;20659;-72
2024/02/23 01:40:21;;;;;;;0.55;0.55;;;6.70;99.90;;;;;;7601866;19;20010;-71
2024/02/23 01:43:06;;;;;;;0.80;0.60;;;6.70;99.90;;;;;;7625751;19;20920;-72
2024/02/23 01:45:38;;;;;;;2.90;0.85;;;6.70;99.90;;;;;;7625948;19;20022;-71
2024/02/23 01:48:11;;;;;;;0.98;0.77;;;6.70;99.90;;;;;;7623404;19;20018;-73
2024/02/23 01:50:44;;;;;;;1.38;0.80;;;6.60;99.90;;;;;;7607023;19;20621;-73
2024/02/23 01:53:19;;;;;;;0.80;0.60;;;6.60;99.90;;;;;;7619172;19;20026;-73
2024/02/23 01:55:53;;;;;;;0.38;0.38;;;6.60;99.90;;;;;;7617784;19;20014;-72
2024/02/23 01:58:26;;;;;;;0.50;0.35;;;6.60;99.90;;;;;;7627924;19;20010;-72
2024/02/23 02:00:58;;;;;;;0.52;0.50;;;6.70;99.90;;;;;;7625890;19;20010;-72
2024/02/23 02:03:32;;;;;;;0.40;0.40;;;6.80;99.90;;;;;;7612436;19;20041;-73
2024/02/23 02:06:09;;;;;;;2.22;0.40;;;6.80;99.90;;;;;;7613449;19;20026;-72
2024/02/23 02:08:42;;;;;;;0.70;0.40;;;6.70;99.90;;;;;;7597157;19;20037;-73
2024/02/23 02:11:14;;;;;;;1.38;0.57;;;6.70;99.90;;;;;;7622248;19;20360;-72
2024/02/23 02:13:47;;;;;;;0.77;0.50;;;6.70;99.90;;;;;;7615892;19;20149;-72
2024/02/23 02:16:19;;;;;;;1.33;0.60;;;6.70;99.90;;;;;;7595808;19;20018;-73
2024/02/23 02:18:52;;;;;;;0.60;0.55;;;6.60;99.90;;;;;;7597026;19;20029;-73
2024/02/23 02:21:25;;;;;;;0.68;0.60;;;6.60;99.90;;;;;;7575775;19;20504;-73
2024/02/23 02:23:57;;;;;;;0.80;0.63;;;6.70;99.90;;;;;;7599152;19;20048;-73
2024/02/23 02:26:30;;;;;;;2.05;0.90;;;6.70;99.90;;;;;;7582794;19;20023;-73
2024/02/23 02:29:03;;;;;;;;;;;6.60;99.90;;;;;;7597271;19;20999;-73
2024/02/23 02:31:37;;;;;;;1.60;0.80;;;6.70;99.90;;;;;;7595908;19;20852;-72
2024/02/23 02:34:12;;;;;;;1.35;0.57;;;6.60;99.90;;;;;;7606077;19;20026;-72
2024/02/23 02:36:45;;;;;;;2.45;1.00;;;6.60;99.90;;;;;;7580333;19;20601;-72
2024/02/23 02:39:17;;;;;;;2.00;0.75;;;6.60;99.90;;;;;;7565324;19;20022;-73
2024/02/23 02:41:50;;;;;;;2.50;0.68;;;6.50;99.90;;;;;;7590983;19;20018;-73
2024/02/23 02:44:22;;;;;;;3.40;1.10;;;6.60;99.90;;;;;;7601322;19;20025;-72
2024/02/23 02:46:55;;;;;;;2.10;0.82;;;6.50;99.90;;;;;;7601206;19;20014;-72
2024/02/23 02:49:27;;;;;;;2.25;0.93;;;6.60;99.90;;;;;;7581979;19;20025;-72
2024/02/23 02:51:59;;;;;;;2.08;0.80;;;6.60;99.90;;;;;;7602268;19;20122;-72
2024/02/23 02:54:31;;;;;;;2.65;0.80;;;6.50;99.90;;;;;;7589121;19;20022;-72
2024/02/23 02:57:04;;;;;;;2.53;0.88;;;6.60;99.90;;;;;;7594597;19;20020;-72
2024/02/23 02:59:37;;;;;;;0.82;0.50;;;6.50;99.90;;;;;;7595640;19;20025;-72
2024/02/23 03:02:09;;;;;;;0.83;0.53;;;6.60;99.90;;;;;;7594730;19;20022;-72
2024/02/23 03:04:49;;;;;;;1.17;0.50;;;6.50;99.90;;;;;;7585418;19;20856;-72
2024/02/23 03:07:21;;;;;;;2.47;0.70;;;6.50;99.90;;;;;;7591189;19;20021;-72
2024/02/23 03:09:54;;;;;;;0.75;0.50;;;6.50;99.90;;;;;;7588576;19;20018;-72
2024/02/23 03:12:26;;;;;;;0.53;0.50;;;6.40;99.90;;;;;;7582633;19;20021;-72
2024/02/23 03:14:59;;;;;;;2.38;1.00;;;6.50;99.90;;;;;;7579876;19;20014;-72
2024/02/23 03:17:31;;;;;;;0.85;0.50;;;6.50;99.90;;;;;;7589011;19;20062;-71
2024/02/23 03:20:11;;;;;;;0.88;0.50;;;6.40;99.90;;;;;;7603232;19;20014;-71
2024/02/23 03:22:43;;;;;;;1.27;0.77;;;6.40;99.90;;;;;;7594251;19;20015;-72
2024/02/23 03:25:16;;;;;;;0.88;0.40;;;6.30;99.90;;;;;;7587337;19;20026;-72
2024/02/23 03:27:49;;;;;;;1.33;0.70;;;6.30;99.90;;;;;;7586075;19;20052;-72
2024/02/23 03:30:21;;;;;;;0.93;0.70;;;6.30;99.90;;;;;;7589430;19;20022;-72
2024/02/23 03:32:54;;;;;;;0.40;0.40;;;6.30;99.90;;;;;;7587834;19;20022;-72
2024/02/23 03:35:27;;;;;;;1.00;0.70;;;6.30;99.90;;;;;;7594618;19;20018;-72
2024/02/23 03:38:00;;;;;;;2.97;0.70;;;6.30;99.90;;;;;;7591826;19;20029;-72
2024/02/23 03:40:32;;;;;;;1.08;0.50;;;6.30;99.90;;;;;;7592308;19;20479;-71
2024/02/23 03:43:05;;;;;;;0.95;0.40;;;6.20;99.90;;;;;;7570255;19;20025;-72
2024/02/23 03:45:38;;;;;;;2.60;0.70;;;6.10;99.90;;;;;;7585342;19;20563;-72
2024/02/23 03:48:10;;;;;;;1.02;0.70;;;6.10;99.90;;;;;;7592394;19;20610;-71
2024/02/23 03:50:42;;;;;;;1.10;0.60;;;6.10;99.90;;;;;;7591189;19;20523;-71
2024/02/23 03:53:15;;;;;;;1.85;1.30;;;6.10;99.90;;;;;;7603834;19;20090;-72
2024/02/23 03:55:48;;;;;;;1.52;1.00;;;6.10;99.90;;;;;;7591050;19;20235;-72
2024/02/23 03:58:21;;;;;;;1.73;0.73;;;6.10;99.90;;;;;;7595313;19;20010;-72
2024/02/23 04:00:53;;;;;;;1.43;0.60;;;6.10;99.90;;;;;;7588394;19;20029;-74
2024/02/23 04:03:26;;;;;;;0.73;0.45;;;6.10;99.90;;;;;;7566002;19;20030;-72
2024/02/23 04:05:58;;;;;;;0.93;0.65;;;6.10;99.90;;;;;;7552645;19;20489;-72
2024/02/23 04:08:31;;;;;;;2.72;0.60;;;6.10;99.90;;;;;;7587210;19;20022;-72
2024/02/23 04:11:04;;;;;;;3.85;1.10;;;6.10;99.90;;;;;;7579486;19;20032;-72
2024/02/23 04:13:36;;;;;;;1.70;0.40;;;6.10;99.90;;;;;;7582739;19;20010;-72
2024/02/23 04:16:08;;;;;;;0.73;0.68;;;6.10;99.90;;;;;;7583191;19;20025;-72
2024/02/23 04:18:41;;;;;;;2.00;0.80;;;6.10;99.90;;;;;;7550105;19;20445;-71
2024/02/23 04:21:15;;;;;;;1.23;0.80;;;6.10;99.90;;;;;;7547932;19;20411;-71
2024/02/23 04:23:48;;;;;;;1.48;0.80;;;6.10;99.90;;;;;;7547688;19;20015;-72
2024/02/23 04:26:20;;;;;;;1.85;0.70;;;6.10;99.90;;;;;;7566731;19;20074;-72
2024/02/23 04:28:53;;;;;;;0.70;0.57;;;6.10;99.90;;;;;;7562737;19;21097;-71
2024/02/23 04:31:26;;;;;;;1.17;1.02;;;6.10;99.90;;;;;;7554795;19;20118;-72
2024/02/23 04:33:59;;;;;;;3.15;0.60;;;6.10;99.90;;;;;;7553438;19;20146;-72
2024/02/23 04:36:31;;;;;;;0.38;0.38;;;6.00;99.90;;;;;;7550415;19;20026;-72
2024/02/23 04:39:04;;;;;;;0.80;0.80;;;6.00;99.90;;;;;;7545906;19;20018;-72
2024/02/23 04:41:36;;;;;;;0.95;0.55;;;5.90;99.90;;;;;;7549913;19;20018;-72
2024/02/23 04:44:08;;;;;;;0.65;0.30;;;5.80;99.90;;;;;;7563074;19;20014;-72
2024/02/23 04:46:41;;;;;;;0.57;0.57;;;5.70;99.90;;;;;;7546519;19;20022;-72
2024/02/23 04:49:13;;;;;;;0.55;0.40;;;5.70;99.90;;;;;;7566829;19;20109;-72
2024/02/23 04:51:46;;;;;;;0.60;0.60;;;5.70;99.90;;;;;;7528451;19;20009;-72
2024/02/23 04:54:18;;;;;;;2.05;0.47;;;5.70;99.90;;;;;;7551193;19;22637;-72
2024/02/23 04:56:50;;;;;;;0.50;0.50;;;5.70;99.90;;;;;;7550859;19;20014;-72
2024/02/23 04:59:23;;;;;;;2.72;0.60;;;5.80;99.90;;;;;;7563541;19;20018;-72
2024/02/23 05:01:55;;;;;;;1.85;0.50;;;5.70;99.90;;;;;;7547150;19;22031;-72
2024/02/23 05:04:28;;;;;;;0.60;0.52;;;5.70;99.90;;;;;;7544524;19;20126;-72
2024/02/23 05:07:01;;;;;;;0.65;0.60;;;5.60;99.90;;;;;;7547238;19;20015;-71
2024/02/23 05:09:34;;;;;;;1.33;0.70;;;5.70;99.90;;;;;;7539051;19;20198;-72
2024/02/23 05:12:08;;;;;;;2.15;0.70;;;5.60;99.90;;;;;;7545470;19;20034;-72
2024/02/23 05:14:41;;;;;;;0.50;0.50;;;5.60;99.90;;;;;;7561157;19;20071;-72
2024/02/23 05:17:13;;;;;;;0.50;0.50;;;5.60;99.90;;;;;;7555377;19;20047;-72
2024/02/23 05:19:46;;;;;;;1.55;0.47;;;5.60;99.90;;;;;;7567141;19;20025;-72
2024/02/23 05:22:19;;;;;;;8.60;4.55;;;5.70;99.90;;;;;;7572341;19;20028;-72
2024/02/23 05:24:52;;;;;;;1.75;1.10;;;5.60;99.90;;;;;;7570281;19;20355;-72
2024/02/23 05:27:25;;;;;;;0.90;0.70;;;5.60;99.90;;;;;;7570808;19;20029;-72
2024/02/23 05:29:57;;;;;;;0.53;0.50;;;5.60;99.90;;;;;;7581055;19;20046;-72
2024/02/23 05:32:30;;;;;;;1.85;0.52;;;5.70;99.90;;;;;;7582348;19;21208;-72
2024/02/23 05:35:03;;;;;;;0.63;0.63;;;5.80;99.90;;;;;;7533375;19;20610;-73
2024/02/23 05:37:37;;;;;;;;;;;5.80;99.90;;;;;;7564225;19;20015;-71
2024/02/23 05:40:12;;;;;;;0.90;0.57;;;5.70;99.90;;;;;;7564863;19;21068;-72
2024/02/23 05:42:44;;;;;;;1.70;0.60;;;5.80;99.90;;;;;;7569133;19;21173;-71
2024/02/23 05:45:17;;;;;;;1.02;0.80;;;5.70;99.90;;;;;;7558889;19;20019;-71
2024/02/23 05:47:49;;;;;;;1.17;0.60;;;5.70;99.90;;;;;;7559516;19;20018;-72
2024/02/23 05:50:22;;;;;;;1.00;0.65;;;5.60;99.90;;;;;;7553133;19;20118;-72
2024/02/23 05:52:54;;;;;;;2.40;0.70;;;5.60;99.90;;;;;;7561952;19;20019;-72
2024/02/23 05:55:27;;;;;;;1.35;0.80;;;5.70;99.90;;;;;;7568391;19;20010;-73
2024/02/23 05:57:59;;;;;;;1.80;0.73;;;5.60;99.90;;;;;;7561004;19;20022;-71
2024/02/23 06:00:32;;;;;;;1.67;0.68;;;5.60;99.90;;;;;;7550826;19;20645;-74
2024/02/23 06:03:05;;;;;;;2.03;0.90;;;5.60;99.90;;;;;;7568978;19;20644;-71
2024/02/23 06:05:39;;;;;;;2.85;1.10;;;5.70;99.90;;;;;;7565799;19;21486;-71
2024/02/23 06:08:12;;;;;;;3.53;1.30;;;5.70;99.90;;;;;;7579419;19;23606;-74
2024/02/23 06:10:46;;;;;;;3.67;2.13;;;5.70;99.90;;;;;;7584605;19;21715;-72
2024/02/23 06:13:19;;;;;;;;;;;5.70;99.90;;;;;;7585217;19;20137;-71
2024/02/23 06:15:52;;;;;;;4.78;1.10;;;5.70;99.90;;;;;;7558934;19;19911;-73
2024/02/23 06:18:24;;;;;;;2.88;0.90;;;5.60;99.90;;;;;;7577037;19;20011;-71
2024/02/23 06:20:57;;;;;;;4.15;1.75;;;5.60;99.90;;;;;;7552715;19;20010;-73
2024/02/23 06:23:30;;;;;;;5.85;2.58;;;5.60;99.90;;;;;;7589668;19;20010;-72
2024/02/23 06:26:02;;;;;;;1.17;0.73;;;5.60;99.90;;;;;;7575020;19;20044;-73
2024/02/23 06:28:37;;;;;;;1.60;1.33;;;5.60;99.90;;;;;;7586909;19;20018;-72
2024/02/23 06:31:10;;;;;;;6.88;1.60;;;5.60;99.90;;;;;;7586504;19;20015;-72
2024/02/23 06:33:43;;;;;;;1.17;1.08;;;5.70;99.90;;;;;;7550911;19;20015;-73
2024/02/23 06:36:16;;;;;;;2.15;1.35;;;5.60;99.90;;;;;;7596161;19;20018;-72
2024/02/23 06:38:48;;;;;;;1.58;1.42;;;5.60;99.90;;;;;;7596828;19;20534;-73
2024/02/23 06:41:21;;;;;;;2.58;1.40;;;5.60;99.90;;;;;;7602862;19;20022;-73
2024/02/23 06:43:54;;;;;;;3.47;1.25;;;5.70;99.90;;;;;;7597174;19;20014;-73
2024/02/23 06:46:27;;;;;;;3.78;1.05;;;5.70;99.90;;;;;;7608323;19;20007;-72
2024/02/23 06:48:59;;;;;;;2.38;1.00;;;5.60;99.90;;;;;;7587093;19;20018;-74
2024/02/23 06:51:32;;;;;;;2.50;1.30;;;5.60;99.90;;;;;;7589867;19;20138;-72
2024/02/23 06:54:04;;;;;;;1.73;1.27;;;5.60;99.90;;;;;;7568233;19;21459;-72
2024/02/23 06:56:37;;;;;;;2.63;1.27;;;5.70;99.90;;;;;;7577573;19;20014;-72
2024/02/23 06:59:10;;;;;;;5.43;1.90;;;5.70;99.90;;;;;;7588605;19;20057;-73
2024/02/23 07:01:51;;;;;;;6.00;3.20;;;5.70;99.90;;;;;;7588220;19;20532;-74
2024/02/23 07:04:25;;;;;;;8.18;2.13;;;5.70;99.90;;;;;;7587529;19;20018;-74
2024/02/23 07:06:57;;;;;;;5.00;2.20;;;5.70;99.90;;;;;;7598230;19;21276;-74
2024/02/23 07:09:29;;;;;;;4.88;1.75;;;5.70;99.90;;;;;;7602590;19;20717;-74
2024/02/23 07:12:02;;;;;;;2.00;1.25;;;5.80;99.90;;;;;;7571929;19;20017;-73
2024/02/23 07:14:35;;;;;;;3.38;2.05;;;5.80;99.90;;;;;;7597606;19;20638;-72
2024/02/23 07:17:08;;;;;;;3.63;1.42;;;5.70;99.90;;;;;;7588773;19;20029;-73
2024/02/23 07:19:40;;;;;;;3.30;1.90;;;5.80;99.90;;;;;;7594481;19;20030;-73
2024/02/23 07:22:12;;;;;;;2.83;1.05;;;5.90;99.90;;;;;;7596969;19;20022;-73
2024/02/23 07:24:44;;;;;;;2.60;1.83;;;5.80;99.90;;;;;;7589871;19;20033;-73
2024/02/23 07:27:17;;;;;;;6.80;2.17;;;5.80;99.90;;;;;;7595245;19;20037;-72
2024/02/23 07:29:49;;;;;;;2.45;1.10;;;5.80;99.90;;;;;;7592973;19;20075;-73
2024/02/23 07:32:22;;;;;;;2.90;1.20;;;5.70;99.90;;;;;;7601528;19;20013;-73
2024/02/23 07:34:54;;;;;;;1.90;1.17;;;5.70;99.90;;;;;;7600782;19;20018;-73
2024/02/23 07:37:27;;;;;;;4.63;0.90;;;5.60;99.90;;;;;;7585858;19;20915;-72
2024/02/23 07:39:59;;;;;;;4.40;0.90;;;5.60;99.90;;;;;;7577607;19;20010;-73
2024/02/23 07:42:32;;;;;;;1.55;0.70;;;5.70;99.90;;;;;;7568865;19;20014;-73
2024/02/23 07:45:06;;;;;;;2.30;0.95;;;5.70;99.90;;;;;;7576708;19;20016;-72
2024/02/23 07:47:38;;;;;;;1.33;0.70;;;5.60;99.90;;;;;;7598510;19;20042;-72
2024/02/23 07:50:12;;;;;;;2.05;1.25;;;5.60;99.90;;;;;;7587136;19;20105;-72
2024/02/23 07:52:45;;;;;;;5.05;1.50;;;5.60;99.90;;;;;;7601667;19;20014;-72
2024/02/23 07:55:17;;;;;;;3.78;1.48;;;5.60;99.90;;;;;;7599222;19;20014;-72
2024/02/23 07:57:49;;;;;;;1.80;1.15;;;5.60;99.90;;;;;;7590131;19;20350;-72
2024/02/23 08:00:21;;;;;;;2.80;1.38;;;5.60;99.90;;;;;;7603841;19;20018;-72
2024/02/23 08:02:59;;;;;;;5.07;1.05;;;5.60;99.90;;;;;;7593671;19;20381;-72
2024/02/23 08:05:32;;;;;;;3.38;1.15;;;5.70;99.90;;;;;;7566595;19;20009;-72
2024/02/23 08:08:06;;;;;;;;;;;5.60;99.90;;;;;;7593481;19;20010;-72
2024/02/23 08:10:39;;;;;;;6.05;1.60;;;5.70;99.90;;;;;;7596773;19;19933;-72
2024/02/23 08:13:11;;;;;;;2.67;1.40;;;5.70;99.90;;;;;;7599234;19;20023;-72
2024/02/23 08:15:44;;;;;;;3.55;1.98;;;5.80;99.90;;;;;;7602143;19;20487;-72
2024/02/23 08:18:17;;;;;;;3.53;2.35;;;5.70;99.90;;;;;;7602016;19;20712;-72
2024/02/23 08:20:49;;;;;;;3.45;1.88;;;5.80;99.90;;;;;;7594603;19;20362;-72
2024/02/23 08:23:22;;;;;;;3.72;1.33;;;5.90;99.90;;;;;;7591786;19;20024;-73
2024/02/23 08:25:56;;;;;;;3.72;1.60;;;6.00;99.90;;;;;;7591724;19;20018;-72
2024/02/23 08:28:29;;;;;;;4.28;1.30;;;6.10;99.90;;;;;;7595186;19;21001;-74
2024/02/23 08:31:01;;;;;;;2.25;1.42;;;6.10;99.90;;;;;;7600514;19;20579;-71
2024/02/23 08:33:34;;;;;;;2.17;1.27;;;6.10;99.90;;;;;;7618265;19;20014;-73
2024/02/23 08:36:07;;;;;;;3.70;1.67;;;6.20;99.90;;;;;;7621157;19;20209;-73
2024/02/23 08:38:40;;;;;;;2.28;0.85;;;6.20;99.90;;;;;;7604337;19;20043;-72
2024/02/23 08:41:12;;;;;;;3.17;0.85;;;6.10;99.90;;;;;;7568883;19;20513;-75
2024/02/23 08:43:45;;;;;;;4.40;1.13;;;6.10;99.90;;;;;;7595607;19;20751;-74
2024/02/23 08:46:19;;;;;;;3.95;0.93;;;6.10;99.90;;;;;;7586632;19;20018;-71
2024/02/23 08:48:51;;;;;;;2.63;0.90;;;6.10;99.90;;;;;;7598382;19;20090;-72
2024/02/23 08:51:24;;;;;;;3.13;0.93;;;6.20;99.90;;;;;;7608333;19;20033;-72
2024/02/23 08:53:57;;;;;;;2.42;0.90;;;6.20;99.90;;;;;;7587836;19;20014;-72
2024/02/23 08:56:36;;;;;;;1.42;0.85;;;6.20;99.90;;;;;;7594944;19;20011;-72
2024/02/23 08:59:09;;;;;;;1.88;1.02;;;6.20;99.90;;;;;;7584838;19;20018;-73
2024/02/23 09:01:44;;;;;;;1.65;0.77;;;6.20;99.90;;;;;;7589242;19;20110;-75
2024/02/23 09:04:16;;;;;;;1.63;0.80;;;6.20;99.90;;;;;;7588132;19;20011;-74
2024/02/23 09:06:50;;;;;;;3.17;0.90;;;6.20;99.90;;;;;;7580743;19;20032;-74
2024/02/23 09:09:22;;;;;;;5.10;0.95;;;6.10;99.90;;;;;;7586871;19;20026;-73
2024/02/23 09:11:55;;;;;;;2.63;0.90;;;6.10;99.90;;;;;;7588061;19;20153;-74
2024/02/23 09:14:28;;;;;;;4.35;1.20;;;6.10;99.90;;;;;;7604588;19;20030;-74
2024/02/23 09:17:00;;;;;;;4.55;0.88;;;6.10;99.90;;;;;;7579435;19;20490;-74
2024/02/23 09:19:33;;;;;;;1.52;0.60;;;6.00;99.90;;;;;;7636020;19;20014;-73
2024/02/23 09:22:06;;;;;;;1.45;0.80;;;5.90;99.90;;;;;;7594187;19;20023;-74
2024/02/23 09:24:42;;;;;;;4.78;1.35;;;5.90;99.90;;;;;;7620549;19;20014;-71
2024/02/23 09:27:14;;;;;;;3.20;1.05;;;5.80;99.90;;;;;;7625747;19;20404;-73
2024/02/23 09:29:47;;;;;;;2.30;0.90;;;5.80;99.90;;;;;;7630551;19;20015;-72
2024/02/23 09:32:19;;;;;;;2.85;0.90;;;5.80;99.90;;;;;;7595695;19;20523;-72
2024/02/23 09:34:51;;;;;;;2.35;0.70;;;5.90;99.90;;;;;;7588166;19;20021;-73
2024/02/23 09:37:24;;;;;;;2.05;0.70;;;5.90;99.90;;;;;;7600024;19;20014;-73
2024/02/23 09:39:56;;;;;;;2.90;1.05;;;5.80;99.90;;;;;;7587963;19;20018;-73
2024/02/23 09:42:32;;;;;;;2.90;0.80;;;5.80;99.90;;;;;;7588412;19;20023;-73
2024/02/23 09:45:05;;;;;;;2.40;1.00;;;5.70;99.90;;;;;;7600997;19;20082;-72
2024/02/23 09:47:38;;;;;;;2.40;0.90;;;5.60;99.90;;;;;;7604720;19;20014;-71
2024/02/23 09:50:14;;;;;;;3.10;0.80;;;5.60;99.90;;;;;;7587396;19;20026;-72
2024/02/23 09:52:47;;;;;;;4.28;1.08;;;5.60;99.90;;;;;;7602357;19;20054;-72
2024/02/23 09:55:22;;;;;;;1.20;0.70;;;5.50;99.90;;;;;;7596353;19;20650;-71
2024/02/23 09:57:57;;;;;;;1.25;0.80;;;5.40;99.90;;;;;;7592915;19;20074;-71
2024/02/23 10:00:31;;;;;;;1.55;0.68;;;5.40;99.90;;;;;;7583622;19;20029;-71
2024/02/23 10:03:04;;;;;;;2.50;0.90;;;5.30;99.90;;;;;;7590507;19;20785;-72
2024/02/23 10:05:40;;;;;;;1.20;0.70;;;5.30;99.90;;;;;;7607659;19;20017;-73
2024/02/23 10:08:14;;;;;;;;;;;5.30;99.90;;;;;;7586655;19;20014;-71
2024/02/23 10:10:47;;;;;;;3.33;1.10;;;5.40;99.90;;;;;;7577317;19;20007;-71
2024/02/23 10:13:20;;;;;;;2.08;0.57;;;5.40;99.90;;;;;;7584333;19;20018;-72
2024/02/23 10:15:53;;;;;;;2.50;1.45;;;5.30;99.90;;;;;;7592241;19;20526;-72
2024/02/23 10:18:46;;;;;;;3.08;1.00;;;5.30;99.90;;;;;;7592043;19;20018;-72
2024/02/23 10:21:19;;;;;;;1.75;1.08;;;5.30;99.90;;;;;;7592566;19;20018;-72
2024/02/23 10:23:51;;;;;;;2.53;0.90;;;5.40;99.90;;;;;;7598099;19;20059;-72
2024/02/23 10:26:26;;;;;;;1.60;1.10;;;5.40;99.90;;;;;;7588168;19;20010;-72
2024/02/23 10:28:58;;;;;;;1.92;1.00;;;5.40;99.90;;;;;;7584691;19;20026;-73
2024/02/23 10:31:39;;;;;;;3.05;1.00;;;5.50;99.90;;;;;;7589117;19;20018;-72
2024/02/23 10:34:13;;;;;;;2.25;1.00;;;5.50;99.90;;;;;;7595156;19;20037;-72
2024/02/23 10:36:47;;;;;;;2.63;1.20;;;5.50;99.90;;;;;;7595526;19;20289;-73
2024/02/23 10:39:24;;;;;;;1.35;0.60;;;5.60;99.90;;;;;;7603220;19;21088;-73
2024/02/23 10:42:00;;;;;;;3.67;0.80;;;5.70;99.90;;;;;;7577464;19;20029;-75
2024/02/23 10:44:34;;;;;;;1.17;0.80;;;5.60;99.90;;;;;;7598964;19;20026;-72
2024/02/23 10:47:07;;;;;;;2.55;0.80;;;5.60;99.90;;;;;;7582562;19;20053;-72
2024/02/23 10:49:41;;;;;;;1.42;1.15;;;5.50;99.90;;;;;;7599730;19;20014;-74
2024/02/23 10:52:15;;;;;;;2.80;0.45;;;5.50;99.90;;;;;;7586544;19;20612;-73
2024/02/23 10:54:48;;;;;;;0.88;0.60;;;5.60;99.90;;;;;;7589858;19;20400;-72
2024/02/23 10:57:21;;;;;;;;;;;5.60;99.90;;;;;;7590183;19;20046;-72
2024/02/23 10:59:54;;;;;;;7.03;1.13;;;5.60;99.90;;;;;;7591926;19;19929;-72
2024/02/23 11:02:29;;;;;;;;;;;5.70;99.90;;;;;;7595455;19;20014;-72
2024/02/23 11:05:04;;;;;;;5.05;1.20;;;5.80;99.90;;;;;;7575084;19;19938;-72
2024/02/23 11:07:40;;;;;;;;;;;5.80;99.90;;;;;;7592148;19;20014;-73
2024/02/23 11:10:14;;;;;;;1.00;0.68;;;5.70;99.90;;;;;;7592770;19;19930;-72
2024/02/23 11:13:00;;;;;;;3.00;1.02;;;5.70;99.90;;;;;;7592598;19;20591;-72
2024/02/23 11:15:39;;;;;;;2.78;0.85;;;5.60;99.90;;;;;;7599323;19;20007;-73
2024/02/23 11:18:23;;;;;;;2.00;1.08;;;5.40;99.90;;;;;;7571814;19;20022;-72
2024/02/23 11:20:56;;;;;;;;;;;5.30;99.90;;;;;;7586436;19;20014;-73
2024/02/23 11:23:42;;;;;;;4.20;1.08;;;5.40;99.90;;;;;;7587560;19;19925;-73
2024/02/23 11:26:15;;;;;;;3.25;0.90;;;5.40;99.90;;;;;;7600175;19;20659;-73
2024/02/23 11:28:49;;;;;;;1.60;0.85;;;5.30;99.90;;;;;;7619698;19;20051;-72
2024/02/23 11:31:30;;;;;;;3.63;1.30;;;5.30;99.90;;;;;;7633328;19;20837;-73
2024/02/23 11:34:09;;;;;;;2.60;1.25;;;5.50;99.90;;;;;;6618051;19;10001352;-72
2024/02/23 11:36:42;;;;;;;3.80;1.70;;;5.50;99.90;;;;;;7606518;19;20052;-72
2024/02/23 11:39:15;;;;;;;2.15;1.27;;;5.40;99.90;;;;;;7593826;19;20109;-73
2024/02/23 11:41:50;;;;;;;3.25;1.20;;;5.40;99.90;;;;;;7599727;19;20033;-72
2024/02/23 11:44:23;;;;;;;5.07;1.30;;;5.50;99.90;;;;;;7590440;19;20047;-72
2024/02/23 11:46:55;;;;;;;2.70;1.30;;;5.50;99.90;;;;;;7602209;19;20021;-73
2024/02/23 11:49:29;;;;;;;1.63;0.90;;;5.40;99.90;;;;;;7602980;19;20748;-73
2024/02/23 11:52:02;;;;;;;1.02;0.70;;;5.40;99.90;;;;;;7603984;19;20026;-73
2024/02/23 11:54:35;;;;;;;2.15;1.05;;;5.40;99.90;;;;;;7597228;19;20107;-72
2024/02/23 11:57:07;;;;;;;1.02;0.70;;;5.40;99.90;;;;;;7604829;19;20526;-73
2024/02/23 11:59:41;;;;;;;1.42;0.80;;;5.40;99.90;;;;;;7605543;19;20062;-74
2024/02/23 12:02:13;;;;;;;2.47;1.50;;;5.30;99.90;;;;;;7573204;19;20026;-74
2024/02/23 12:04:46;;;;;;;2.33;1.38;;;5.30;99.90;;;;;;7600872;19;20015;-74
2024/02/23 12:07:20;;;;;;;3.47;0.70;;;5.40;99.90;;;;;;7585698;19;20022;-77
2024/02/23 12:09:53;;;;;;;4.72;0.60;;;5.30;99.90;;;;;;7601291;19;20010;-73
2024/02/23 12:12:27;;;;;;;1.90;1.33;;;5.20;99.90;;;;;;7623212;19;20018;-75
2024/02/23 12:15:00;;;;;;;2.30;0.70;;;5.30;99.90;;;;;;7622615;19;20370;-74
2024/02/23 12:17:37;;;;;;;6.35;0.90;;;5.30;99.90;;;;;;7550777;19;20006;-73
2024/02/23 12:20:10;;;;;;;0.90;0.80;;;5.20;99.90;;;;;;7585465;19;20030;-74
2024/02/23 12:22:43;;;;;;;5.35;1.08;;;5.20;99.90;;;;;;7588493;19;20515;-74
2024/02/23 12:25:17;;;;;;;2.03;1.05;;;5.20;99.90;;;;;;7577785;19;20022;-75
2024/02/23 12:27:55;;;;;;;2.00;1.25;;;5.30;99.90;;;;;;7587403;19;20014;-74
2024/02/23 12:30:31;;;;;;;2.15;0.80;;;5.30;99.90;;;;;;7587646;19;20071;-72
2024/02/23 12:33:10;;;;;;;3.45;0.90;;;5.40;99.90;;;;;;7574634;19;20023;-75
2024/02/23 12:35:44;;;;;;;1.58;0.70;;;5.40;99.90;;;;;;7580212;19;20014;-74
2024/02/23 12:38:17;;;;;;;1.58;0.77;;;5.40;99.90;;;;;;7587219;19;20010;-77
2024/02/23 12:40:50;;;;;;;2.17;1.00;;;5.40;99.90;;;;;;7593805;19;20033;-75
2024/02/23 12:43:26;;;;;;;2.90;0.77;;;5.30;99.90;;;;;;7585222;19;20015;-74
2024/02/23 12:45:58;;;;;;;1.00;0.65;;;5.20;99.90;;;;;;7596750;19;20050;-72
2024/02/23 12:48:30;;;;;;;1.98;0.50;;;5.20;99.90;;;;;;7567805;19;20088;-75
2024/02/23 12:51:04;;;;;;;1.30;0.67;;;5.10;99.90;;;;;;7574787;19;20014;-73
2024/02/23 12:53:38;;;;;;;1.02;0.77;;;5.10;99.90;;;;;;7561770;19;20022;-73
2024/02/23 12:56:15;;;;;;;9.85;0.93;;;5.00;99.90;;;;;;7588094;19;20033;-73
2024/02/23 12:58:48;;;;;;;1.25;0.68;;;5.00;99.90;;;;;;7602639;19;20015;-74
2024/02/23 13:01:21;;;;;;;5.22;1.20;;;5.00;99.90;;;;;;7609253;19;20025;-75
2024/02/23 13:03:53;;;;;;;6.50;0.82;;;5.10;99.90;;;;;;7593478;19;20015;-74
2024/02/23 13:06:27;;;;;;;1.65;0.77;;;5.20;99.90;;;;;;7604350;19;20048;-74
2024/02/23 13:08:59;;;;;;;1.30;0.70;;;5.30;99.90;;;;;;7611542;19;20037;-72
2024/02/23 13:11:32;;;;;;;2.20;0.80;;;5.30;99.90;;;;;;7597680;19;20507;-72
2024/02/23 13:14:04;;;;;;;2.42;1.10;;;5.30;99.90;;;;;;7611775;19;20015;-74
2024/02/23 13:16:36;;;;;;;1.42;0.75;;;5.30;99.90;;;;;;7604397;19;20022;-74
2024/02/23 13:19:09;;;;;;;4.45;1.00;;;5.30;99.90;;;;;;7611172;19;20045;-72
2024/02/23 13:21:41;;;;;;;1.30;0.80;;;5.30;99.90;;;;;;7601304;19;20018;-72
2024/02/23 13:24:14;;;;;;;8.63;1.13;;;5.30;99.90;;;;;;7587811;19;20019;-74
2024/02/23 13:26:46;;;;;;;6.20;1.05;;;5.30;99.90;;;;;;7609055;19;20025;-73
2024/02/23 13:29:18;;;;;;;3.15;1.00;;;5.20;99.90;;;;;;7612763;19;20546;-73
2024/02/23 13:31:51;;;;;;;2.88;0.93;;;5.20;99.90;;;;;;7607164;19;20032;-73
2024/02/23 13:34:23;;;;;;;1.42;0.88;;;5.20;99.90;;;;;;7592207;19;20039;-74